createdAt,value
2018-03-01T00:00:59.815Z,-10.40
2018-03-01T00:03:26.834Z,-10.40
2018-03-01T00:05:53.145Z,-10.40
2018-03-01T00:08:19.449Z,-10.40
2018-03-01T00:10:46.478Z,-10.50
2018-03-01T00:13:12.733Z,-10.50
2018-03-01T00:15:39.075Z,-10.60
2018-03-01T00:18:05.330Z,-10.60
2018-03-01T00:20:31.616Z,-10.70
2018-03-01T00:22:57.922Z,-10.70
2018-03-01T00:25:24.922Z,-10.70
2018-03-01T00:27:51.338Z,-10.70
2018-03-01T00:30:18.338Z,-10.70
2018-03-01T00:32:44.598Z,-10.70
2018-03-01T00:35:11.764Z,-10.70
2018-03-01T00:37:39.501Z,-10.70
2018-03-01T00:40:27.370Z,-10.70
2018-03-01T00:42:53.651Z,-10.70
2018-03-01T00:45:20.768Z,-10.80
2018-03-01T00:47:47.083Z,-10.80
2018-03-01T00:50:13.367Z,-10.80
2018-03-01T00:52:39.636Z,-10.90
2018-03-01T00:55:05.884Z,-10.90
2018-03-01T00:57:32.152Z,-11.00
2018-03-01T00:59:58.461Z,-11.10
2018-03-01T01:02:24.824Z,-11.00
2018-03-01T01:04:51.120Z,-11.10
2018-03-01T01:07:17.376Z,-11.20
2018-03-01T01:09:43.645Z,-11.20
2018-03-01T01:12:11.201Z,-11.20
2018-03-01T01:14:37.452Z,-11.20
2018-03-01T01:17:03.717Z,-11.30
2018-03-01T01:19:30.059Z,-11.40
2018-03-01T01:21:56.317Z,-11.50
2018-03-01T01:24:22.637Z,-11.40
2018-03-01T01:26:48.971Z,-11.40
2018-03-01T01:29:15.992Z,-11.50
2018-03-01T01:31:55.948Z,-11.50
2018-03-01T01:34:22.230Z,-11.50
2018-03-01T01:36:48.486Z,-11.50
2018-03-01T01:39:15.453Z,-11.60
2018-03-01T01:41:41.729Z,-11.60
2018-03-01T01:44:07.996Z,-11.60
2018-03-01T01:46:38.718Z,-11.60
2018-03-01T01:49:05.007Z,-11.70
2018-03-01T01:51:32.024Z,-11.70
2018-03-01T01:53:58.307Z,-11.70
2018-03-01T01:56:27.447Z,-11.60
2018-03-01T01:58:53.698Z,-11.60
2018-03-01T02:01:26.367Z,-11.60
2018-03-01T02:03:52.802Z,-11.70
2018-03-01T02:06:19.828Z,-11.60
2018-03-01T02:08:46.095Z,-11.60
2018-03-01T02:11:13.271Z,-11.60
2018-03-01T02:13:40.549Z,-11.40
2018-03-01T02:16:06.921Z,-11.50
2018-03-01T02:18:33.204Z,-11.20
2018-03-01T02:20:59.552Z,-11.30
2018-03-01T02:23:30.498Z,-11.40
2018-03-01T02:25:56.887Z,-11.50
2018-03-01T02:28:23.166Z,-11.50
2018-03-01T02:30:49.463Z,-11.60
2018-03-01T02:33:15.806Z,-11.70
2018-03-01T02:35:42.094Z,-11.70
2018-03-01T02:38:08.378Z,-11.70
2018-03-01T02:40:35.427Z,-11.90
2018-03-01T02:43:02.494Z,-11.90
2018-03-01T02:45:29.481Z,-12.00
2018-03-01T02:47:55.783Z,-12.00
2018-03-01T02:50:22.849Z,-12.00
2018-03-01T02:52:49.866Z,-11.90
2018-03-01T02:55:16.217Z,-11.90
2018-03-01T02:57:42.550Z,-11.90
2018-03-01T03:00:08.880Z,-11.90
2018-03-01T03:02:35.166Z,-11.90
2018-03-01T03:05:01.462Z,-12.00
2018-03-01T03:07:28.843Z,-12.00
2018-03-01T03:09:55.136Z,-12.00
2018-03-01T03:12:21.839Z,-12.00
2018-03-01T03:15:08.375Z,-11.90
2018-03-01T03:17:34.706Z,-11.90
2018-03-01T03:20:00.986Z,-11.80
2018-03-01T03:22:27.282Z,-11.90
2018-03-01T03:24:53.621Z,-11.90
2018-03-01T03:27:19.908Z,-12.00
2018-03-01T03:29:46.198Z,-12.00
2018-03-01T03:32:12.540Z,-12.00
2018-03-01T03:34:38.879Z,-12.00
2018-03-01T03:37:05.194Z,-11.90
2018-03-01T03:39:33.332Z,-12.00
2018-03-01T03:41:59.641Z,-12.00
2018-03-01T03:44:26.757Z,-12.00
2018-03-01T03:46:53.045Z,-12.00
2018-03-01T03:49:19.397Z,-12.00
2018-03-01T03:51:45.698Z,-12.00
2018-03-01T03:54:11.997Z,-12.10
2018-03-01T03:56:45.501Z,-12.20
2018-03-01T03:59:11.753Z,-12.20
2018-03-01T04:01:38.025Z,-12.20
2018-03-01T04:04:04.276Z,-12.20
2018-03-01T04:06:30.567Z,-12.30
2018-03-01T04:08:56.859Z,-12.30
2018-03-01T04:11:23.137Z,-12.30
2018-03-01T04:13:50.155Z,-12.30
2018-03-01T04:16:16.458Z,-12.30
2018-03-01T04:18:42.746Z,-12.30
2018-03-01T04:21:09.021Z,-12.40
2018-03-01T04:23:35.286Z,-12.40
2018-03-01T04:26:01.585Z,-12.20
2018-03-01T04:28:28.590Z,-12.20
2018-03-01T04:30:55.962Z,-12.30
2018-03-01T04:33:22.260Z,-12.30
2018-03-01T04:35:49.270Z,-12.50
2018-03-01T04:38:15.549Z,-12.50
2018-03-01T04:40:42.550Z,-12.60
2018-03-01T04:43:08.830Z,-12.60
2018-03-01T04:45:35.856Z,-12.60
2018-03-01T04:48:06.685Z,-12.60
2018-03-01T04:50:32.967Z,-12.60
2018-03-01T04:52:59.297Z,-12.70
2018-03-01T04:55:25.584Z,-12.60
2018-03-01T04:57:52.640Z,-12.50
2018-03-01T05:00:18.958Z,-12.60
2018-03-01T05:02:45.966Z,-12.50
2018-03-01T05:05:23.055Z,-12.50
2018-03-01T05:07:50.081Z,-12.50
2018-03-01T05:10:16.344Z,-12.50
2018-03-01T05:12:42.612Z,-12.50
2018-03-01T05:15:09.608Z,-12.70
2018-03-01T05:17:35.925Z,-12.70
2018-03-01T05:20:02.261Z,-12.60
2018-03-01T05:22:29.417Z,-12.80
2018-03-01T05:24:55.785Z,-12.80
2018-03-01T05:27:22.082Z,-12.70
2018-03-01T05:29:48.324Z,-12.70
2018-03-01T05:32:15.358Z,-12.70
2018-03-01T05:34:41.943Z,-12.70
2018-03-01T05:37:08.948Z,-12.70
2018-03-01T05:39:35.206Z,-12.70
2018-03-01T05:42:01.475Z,-12.70
2018-03-01T05:44:28.478Z,-12.80
2018-03-01T05:46:54.755Z,-12.80
2018-03-01T05:49:21.101Z,-12.80
2018-03-01T05:51:47.468Z,-12.70
2018-03-01T05:54:14.511Z,-12.70
2018-03-01T05:56:40.968Z,-12.70
2018-03-01T05:59:07.267Z,-12.70
2018-03-01T06:01:33.683Z,-12.70
2018-03-01T06:03:59.934Z,-12.70
2018-03-01T06:06:26.217Z,-12.70
2018-03-01T06:08:52.492Z,-12.80
2018-03-01T06:11:19.510Z,-12.60
2018-03-01T06:13:45.805Z,-12.70
2018-03-01T06:16:12.972Z,-12.50
2018-03-01T06:18:39.254Z,-12.50
2018-03-01T06:21:05.590Z,-12.40
2018-03-01T06:23:31.923Z,-12.40
2018-03-01T06:25:58.221Z,-12.30
2018-03-01T06:28:36.985Z,-12.30
2018-03-01T06:31:03.264Z,-12.20
2018-03-01T06:33:29.637Z,-12.20
2018-03-01T06:35:55.912Z,-12.20
2018-03-01T06:38:22.209Z,-12.10
2018-03-01T06:41:10.051Z,-12.00
2018-03-01T06:43:36.320Z,-11.70
2018-03-01T06:46:03.344Z,-10.30
2018-03-01T06:48:31.731Z,-10.40
2018-03-01T06:50:58.154Z,-9.60
2018-03-01T06:53:24.487Z,-9.20
2018-03-01T06:55:50.756Z,-9.00
2018-03-01T06:58:17.017Z,-8.50
2018-03-01T07:00:43.323Z,-8.30
2018-03-01T07:06:02.834Z,-8.70
2018-03-01T07:08:29.152Z,-9.10
2018-03-01T07:10:56.194Z,-9.40
2018-03-01T07:13:22.467Z,-9.40
2018-03-01T07:15:48.791Z,-9.60
2018-03-01T07:18:15.053Z,-9.80
2018-03-01T07:20:42.072Z,-9.70
2018-03-01T07:23:08.405Z,-9.70
2018-03-01T07:25:34.767Z,-9.70
2018-03-01T07:28:01.053Z,-9.60
2018-03-01T07:30:27.430Z,-9.70
2018-03-01T07:32:53.773Z,-9.80
2018-03-01T07:35:20.164Z,-9.70
2018-03-01T07:37:47.206Z,-9.20
2018-03-01T07:40:13.494Z,-9.20
2018-03-01T07:42:39.866Z,-8.90
2018-03-01T07:45:06.116Z,-8.60
2018-03-01T07:47:33.900Z,-7.90
2018-03-01T07:50:03.676Z,-7.90
2018-03-01T07:52:29.999Z,-7.70
2018-03-01T07:54:56.290Z,-7.20
2018-03-01T07:57:22.606Z,-7.00
2018-03-01T08:00:02.427Z,-6.30
2018-03-01T08:02:29.539Z,-4.60
2018-03-01T08:04:55.851Z,-4.60
2018-03-01T08:07:22.870Z,-4.60
2018-03-01T08:09:49.334Z,-4.60
2018-03-01T08:12:15.769Z,-4.70
2018-03-01T08:14:42.142Z,-4.80
2018-03-01T08:17:09.178Z,-4.20
2018-03-01T08:19:35.455Z,-4.30
2018-03-01T08:22:01.732Z,-4.10
2018-03-01T08:24:28.219Z,-4.00
2018-03-01T08:26:54.498Z,-4.00
2018-03-01T08:29:20.805Z,-4.00
2018-03-01T08:31:47.862Z,-3.00
2018-03-01T08:34:36.250Z,-3.30
2018-03-01T08:37:02.604Z,-3.30
2018-03-01T08:39:28.897Z,-3.30
2018-03-01T08:41:55.153Z,-3.40
2018-03-01T08:44:21.446Z,-3.30
2018-03-01T08:46:47.716Z,-3.00
2018-03-01T08:49:14.087Z,-3.10
2018-03-01T08:51:41.116Z,-2.70
2018-03-01T08:54:07.367Z,-2.70
2018-03-01T08:56:33.726Z,-2.90
2018-03-01T08:59:00.754Z,-3.40
2018-03-01T09:01:27.063Z,-3.40
2018-03-01T09:03:53.314Z,-3.20
2018-03-01T09:06:19.621Z,-3.30
2018-03-01T09:08:46.682Z,-3.10
2018-03-01T09:11:13.752Z,-3.20
2018-03-01T09:13:40.885Z,-3.30
2018-03-01T09:16:07.203Z,-3.30
2018-03-01T09:18:33.490Z,-2.70
2018-03-01T09:21:00.516Z,-1.50
2018-03-01T09:23:26.820Z,-1.50
2018-03-01T09:25:53.130Z,-1.80
2018-03-01T09:28:20.135Z,-2.60
2018-03-01T09:30:46.523Z,-2.60
2018-03-01T09:33:13.619Z,-2.80
2018-03-01T09:35:40.094Z,-2.80
2018-03-01T09:38:06.666Z,-3.00
2018-03-01T09:40:32.962Z,-3.00
2018-03-01T09:42:59.229Z,-3.00
2018-03-01T09:45:25.532Z,-3.20
2018-03-01T09:47:51.870Z,-3.20
2018-03-01T09:50:18.902Z,-3.10
2018-03-01T09:52:45.425Z,-3.10
2018-03-01T09:55:11.767Z,-2.90
2018-03-01T09:57:38.882Z,-2.50
2018-03-01T10:00:06.107Z,-2.40
2018-03-01T10:02:32.434Z,-2.50
2018-03-01T10:04:59.086Z,-2.30
2018-03-01T10:07:25.389Z,-1.90
2018-03-01T10:09:51.670Z,-1.60
2018-03-01T10:12:17.977Z,-1.60
2018-03-01T10:14:44.285Z,-1.40
2018-03-01T10:17:10.585Z,-1.80
2018-03-01T10:19:36.840Z,-2.00
2018-03-01T10:22:03.149Z,-1.50
2018-03-01T10:24:29.418Z,-1.30
2018-03-01T10:26:55.790Z,-1.40
2018-03-01T10:29:22.070Z,-1.50
2018-03-01T10:31:48.325Z,-1.90
2018-03-01T10:34:14.741Z,-2.00
2018-03-01T10:36:41.961Z,-2.20
2018-03-01T10:39:08.206Z,-2.20
2018-03-01T10:41:34.492Z,-2.10
2018-03-01T10:44:01.519Z,-1.80
2018-03-01T10:46:27.822Z,-1.80
2018-03-01T10:48:54.099Z,-1.70
2018-03-01T10:51:20.354Z,-1.70
2018-03-01T10:53:46.788Z,-1.70
2018-03-01T10:56:13.111Z,-1.60
2018-03-01T10:58:39.445Z,-1.60
2018-03-01T11:01:20.685Z,-1.60
2018-03-01T11:03:47.964Z,-1.70
2018-03-01T11:06:15.097Z,-1.70
2018-03-01T11:08:57.174Z,-1.70
2018-03-01T11:11:23.535Z,-1.50
2018-03-01T11:13:49.915Z,-1.30
2018-03-01T11:16:16.387Z,-1.10
2018-03-01T11:18:43.512Z,-0.70
2018-03-01T11:21:09.860Z,-0.70
2018-03-01T11:23:36.207Z,-0.60
2018-03-01T11:26:03.548Z,-0.40
2018-03-01T11:28:29.919Z,-0.60
2018-03-01T11:30:56.467Z,-0.50
2018-03-01T11:33:22.910Z,-0.50
2018-03-01T11:35:49.202Z,-0.50
2018-03-01T11:38:15.505Z,-0.50
2018-03-01T11:40:42.568Z,-0.20
2018-03-01T11:43:08.905Z,-0.20
2018-03-01T11:45:35.237Z,0.00
2018-03-01T11:48:01.619Z,0.10
2018-03-01T11:50:28.127Z,0.20
2018-03-01T11:53:05.372Z,0.40
2018-03-01T11:55:31.780Z,0.40
2018-03-01T11:57:58.943Z,0.60
2018-03-01T12:00:25.210Z,0.60
2018-03-01T12:02:52.267Z,0.60
2018-03-01T12:05:18.646Z,0.60
2018-03-01T12:07:44.946Z,0.70
2018-03-01T12:10:12.043Z,0.70
2018-03-01T12:12:38.354Z,0.60
2018-03-01T12:15:05.409Z,0.60
2018-03-01T12:17:32.486Z,0.50
2018-03-01T12:19:59.516Z,0.60
2018-03-01T12:22:25.800Z,0.60
2018-03-01T12:24:52.097Z,0.60
2018-03-01T12:27:18.445Z,0.80
2018-03-01T12:29:45.527Z,0.40
2018-03-01T12:32:12.550Z,1.30
2018-03-01T12:34:39.575Z,1.50
2018-03-01T12:37:06.020Z,1.50
2018-03-01T12:39:32.501Z,1.70
2018-03-01T12:41:58.936Z,1.10
2018-03-01T12:44:27.916Z,1.10
2018-03-01T12:46:54.182Z,1.20
2018-03-01T12:49:20.557Z,1.30
2018-03-01T12:51:47.196Z,1.40
2018-03-01T12:54:13.610Z,1.30
2018-03-01T12:56:46.038Z,1.40
2018-03-01T12:59:12.757Z,1.50
2018-03-01T13:01:42.632Z,2.60
2018-03-01T13:04:11.889Z,3.30
2018-03-01T13:06:38.226Z,3.30
2018-03-01T13:09:05.339Z,3.20
2018-03-01T13:11:31.852Z,3.30
2018-03-01T13:14:04.695Z,3.80
2018-03-01T13:16:37.530Z,3.50
2018-03-01T13:19:03.928Z,3.40
2018-03-01T13:21:31.019Z,2.70
2018-03-01T13:23:57.398Z,2.70
2018-03-01T13:26:23.770Z,2.30
2018-03-01T13:28:52.001Z,2.50
2018-03-01T13:31:19.189Z,2.50
2018-03-01T13:33:52.365Z,2.30
2018-03-01T13:36:19.507Z,2.20
2018-03-01T13:38:46.552Z,2.30
2018-03-01T13:41:12.842Z,2.30
2018-03-01T13:43:42.522Z,2.40
2018-03-01T13:46:09.809Z,2.20
2018-03-01T13:48:36.148Z,2.20
2018-03-01T13:51:02.440Z,2.30
2018-03-01T13:53:28.787Z,2.50
2018-03-01T13:55:55.080Z,2.60
2018-03-01T13:58:25.668Z,3.00
2018-03-01T14:00:52.791Z,3.10
2018-03-01T14:03:19.249Z,3.10
2018-03-01T14:05:45.555Z,2.90
2018-03-01T14:08:11.979Z,2.90
2018-03-01T14:10:38.303Z,2.90
2018-03-01T14:13:10.560Z,2.90
2018-03-01T14:15:38.726Z,2.80
2018-03-01T14:18:16.748Z,2.70
2018-03-01T14:20:50.266Z,2.60
2018-03-01T14:26:30.070Z,2.50
2018-03-01T14:28:58.431Z,2.40
2018-03-01T14:31:26.690Z,2.60
2018-03-01T14:33:52.874Z,2.60
2018-03-01T14:36:19.019Z,2.50
2018-03-01T14:38:45.212Z,2.30
2018-03-01T14:41:12.355Z,2.50
2018-03-01T14:43:38.585Z,2.40
2018-03-01T14:46:04.899Z,2.70
2018-03-01T14:48:31.256Z,2.80
2018-03-01T14:50:58.451Z,2.90
2018-03-01T14:53:24.670Z,2.90
2018-03-01T14:55:51.002Z,2.60
2018-03-01T14:58:17.185Z,2.50
2018-03-01T15:00:43.555Z,2.00
2018-03-01T15:03:09.734Z,1.90
2018-03-01T15:05:35.936Z,1.70
2018-03-01T15:08:06.226Z,1.70
2018-03-01T15:10:32.408Z,1.60
2018-03-01T15:12:59.404Z,1.40
2018-03-01T15:15:25.700Z,1.40
2018-03-01T15:17:54.268Z,1.50
2018-03-01T15:20:20.616Z,1.50
2018-03-01T15:22:46.929Z,1.50
2018-03-01T15:25:13.223Z,1.60
2018-03-01T15:27:39.506Z,1.40
2018-03-01T15:30:05.777Z,1.50
2018-03-01T15:32:32.131Z,1.50
2018-03-01T15:35:01.563Z,1.40
2018-03-01T15:37:27.907Z,1.30
2018-03-01T15:39:54.384Z,1.10
2018-03-01T15:42:20.804Z,1.00
2018-03-01T15:44:47.884Z,0.50
2018-03-01T15:47:14.582Z,0.50
2018-03-01T15:49:40.830Z,0.10
2018-03-01T15:52:07.123Z,0.00
2018-03-01T15:54:42.722Z,-0.40
2018-03-01T15:57:19.366Z,-0.40
2018-03-01T15:59:46.531Z,-0.60
2018-03-01T16:02:13.647Z,-0.90
2018-03-01T16:04:41.729Z,-1.10
2018-03-01T16:07:26.424Z,-1.10
2018-03-01T16:09:52.810Z,-1.10
2018-03-01T16:12:19.176Z,-1.10
2018-03-01T16:14:45.580Z,-1.30
2018-03-01T16:17:11.861Z,-1.40
2018-03-01T16:19:38.220Z,-1.50
2018-03-01T16:22:04.538Z,-1.50
2018-03-01T16:24:30.887Z,-1.60
2018-03-01T16:26:58.277Z,-1.60
2018-03-01T16:29:27.194Z,-1.70
2018-03-01T16:31:53.600Z,-1.80
2018-03-01T16:34:19.895Z,-1.80
2018-03-01T16:36:46.202Z,-1.90
2018-03-01T16:39:15.742Z,-2.00
2018-03-01T16:41:41.986Z,-2.00
2018-03-01T16:44:08.244Z,-2.30
2018-03-01T16:46:35.299Z,-2.30
2018-03-01T16:49:01.549Z,-2.30
2018-03-01T16:51:28.653Z,-2.70
2018-03-01T16:53:54.916Z,-2.70
2018-03-01T16:56:21.217Z,-2.70
2018-03-01T16:58:47.486Z,-2.80
2018-03-01T17:01:20.796Z,-2.70
2018-03-01T17:03:47.109Z,-2.80
2018-03-01T17:06:14.171Z,-3.00
2018-03-01T17:08:40.592Z,-3.00
2018-03-01T17:11:06.880Z,-3.10
2018-03-01T17:13:33.249Z,-3.10
2018-03-01T17:16:00.711Z,-3.10
2018-03-01T17:18:27.532Z,-3.00
2018-03-01T17:20:54.869Z,-3.00
2018-03-01T17:23:21.421Z,-3.00
2018-03-01T17:25:57.255Z,-3.10
2018-03-01T17:28:23.845Z,-3.20
2018-03-01T17:30:50.299Z,-3.30
2018-03-01T17:33:17.431Z,-3.30
2018-03-01T17:35:43.721Z,-3.40
2018-03-01T17:38:09.980Z,-3.50
2018-03-01T17:40:36.258Z,-3.60
2018-03-01T17:43:02.660Z,-3.70
2018-03-01T17:45:28.982Z,-3.80
2018-03-01T17:47:55.321Z,-4.10
2018-03-01T17:50:21.620Z,-4.10
2018-03-01T17:52:48.062Z,-4.10
2018-03-01T17:55:14.509Z,-4.10
2018-03-01T17:57:40.852Z,-4.20
2018-03-01T18:00:07.249Z,-4.30
2018-03-01T18:02:33.517Z,-4.40
2018-03-01T18:05:00.757Z,-4.30
2018-03-01T18:07:27.245Z,-4.30
2018-03-01T18:09:54.374Z,-4.40
2018-03-01T18:12:22.844Z,-4.40
2018-03-01T18:14:50.918Z,-4.40
2018-03-01T18:17:17.987Z,-4.50
2018-03-01T18:19:45.187Z,-4.50
2018-03-01T18:22:11.656Z,-4.50
2018-03-01T18:24:37.999Z,-4.50
2018-03-01T18:27:04.255Z,-4.50
2018-03-01T18:29:30.577Z,-4.60
2018-03-01T18:31:57.311Z,-4.70
2018-03-01T18:34:23.723Z,-4.60
2018-03-01T18:36:50.806Z,-4.40
2018-03-01T18:39:17.888Z,-4.50
2018-03-01T18:41:44.907Z,-4.30
2018-03-01T18:44:11.968Z,-4.30
2018-03-01T18:46:38.244Z,-4.30
2018-03-01T18:49:04.498Z,-4.40
2018-03-01T18:51:30.837Z,-4.20
2018-03-01T18:54:01.820Z,-4.30
2018-03-01T18:56:28.499Z,-4.50
2018-03-01T18:58:55.524Z,-4.60
2018-03-01T19:01:27.712Z,-4.70
2018-03-01T19:03:59.061Z,-4.80
2018-03-01T19:06:25.341Z,-4.80
2018-03-01T19:08:51.760Z,-4.80
2018-03-01T19:11:18.045Z,-4.50
2018-03-01T19:13:57.206Z,-4.60
2018-03-01T19:16:23.542Z,-4.60
2018-03-01T19:18:50.044Z,-4.60
2018-03-01T19:21:16.322Z,-4.80
2018-03-01T19:23:42.859Z,-4.70
2018-03-01T19:26:09.891Z,-4.80
2018-03-01T19:28:40.967Z,-4.90
2018-03-01T19:31:07.990Z,-4.90
2018-03-01T19:33:34.350Z,-4.90
2018-03-01T19:36:14.983Z,-5.00
2018-03-01T19:38:45.231Z,-5.10
2018-03-01T19:41:11.529Z,-5.20
2018-03-01T19:43:38.550Z,-5.30
2018-03-01T19:46:05.602Z,-5.40
2018-03-01T19:48:31.911Z,-5.50
2018-03-01T19:50:58.609Z,-5.40
2018-03-01T19:53:24.886Z,-5.50
2018-03-01T19:55:54.919Z,-5.70
2018-03-01T19:58:21.956Z,-5.50
2018-03-01T20:00:48.203Z,-5.50
2018-03-01T20:03:15.449Z,-5.00
2018-03-01T20:05:41.722Z,-5.00
2018-03-01T20:08:13.028Z,-5.20
2018-03-01T20:10:39.330Z,-5.20
2018-03-01T20:13:05.619Z,-5.40
2018-03-01T20:15:32.012Z,-5.50
2018-03-01T20:17:59.147Z,-5.80
2018-03-01T20:20:29.041Z,-5.80
2018-03-01T20:22:55.720Z,-5.70
2018-03-01T20:25:22.084Z,-5.80
2018-03-01T20:27:57.567Z,-5.70
2018-03-01T20:30:23.943Z,-5.80
2018-03-01T20:32:50.229Z,-5.80
2018-03-01T20:35:16.510Z,-5.90
2018-03-01T20:37:43.456Z,-5.90
2018-03-01T20:40:09.770Z,-6.00
2018-03-01T20:42:36.072Z,-6.10
2018-03-01T20:45:02.623Z,-6.20
2018-03-01T20:47:29.146Z,-6.20
2018-03-01T20:49:57.474Z,-6.30
2018-03-01T20:52:23.900Z,-6.30
2018-03-01T20:54:50.447Z,-6.40
2018-03-01T20:57:16.829Z,-6.40
2018-03-01T20:59:43.167Z,-6.50
2018-03-01T21:02:09.504Z,-6.50
2018-03-01T21:04:35.854Z,-6.50
2018-03-01T21:07:02.159Z,-6.50
2018-03-01T21:09:28.635Z,-6.60
2018-03-01T21:11:54.942Z,-6.50
2018-03-01T21:14:21.232Z,-6.60
2018-03-01T21:16:47.507Z,-6.60
2018-03-01T21:19:15.886Z,-6.70
2018-03-01T21:21:42.138Z,-6.70
2018-03-01T21:24:09.167Z,-6.70
2018-03-01T21:26:35.551Z,-6.70
2018-03-01T21:29:01.993Z,-6.70
2018-03-01T21:31:28.458Z,-6.70
2018-03-01T21:33:57.267Z,-6.80
2018-03-01T21:36:23.598Z,-6.80
2018-03-01T21:38:50.984Z,-6.80
2018-03-01T21:41:17.314Z,-6.70
2018-03-01T21:43:43.768Z,-6.80
2018-03-01T21:46:13.076Z,-6.80
2018-03-01T21:48:46.880Z,-6.80
2018-03-01T21:51:18.599Z,-6.90
2018-03-01T21:53:44.866Z,-6.90
2018-03-01T21:56:23.993Z,-7.00
2018-03-01T21:58:51.381Z,-7.00
2018-03-01T22:01:18.562Z,-7.10
2018-03-01T22:03:45.025Z,-7.20
2018-03-01T22:06:11.438Z,-7.20
2018-03-01T22:08:38.037Z,-7.30
2018-03-01T22:11:04.413Z,-7.40
2018-03-01T22:13:30.805Z,-7.50
2018-03-01T22:15:57.810Z,-7.50
2018-03-01T22:18:24.286Z,-7.60
2018-03-01T22:20:54.457Z,-7.60
2018-03-01T22:23:20.919Z,-7.60
2018-03-01T22:25:47.391Z,-7.60
2018-03-01T22:28:14.550Z,-7.50
2018-03-01T22:30:42.819Z,-7.50
2018-03-01T22:33:09.112Z,-7.50
2018-03-01T22:35:35.515Z,-7.50
2018-03-01T22:38:01.796Z,-7.70
2018-03-01T22:40:28.092Z,-7.80
2018-03-01T22:42:54.367Z,-7.80
2018-03-01T22:45:21.423Z,-7.90
2018-03-01T22:47:48.548Z,-8.00
2018-03-01T22:50:15.008Z,-8.00
2018-03-01T22:52:41.266Z,-8.00
2018-03-01T22:55:07.554Z,-8.10
2018-03-01T22:57:33.842Z,-8.20
2018-03-01T23:00:00.144Z,-8.10
2018-03-01T23:02:26.459Z,-8.10
2018-03-01T23:04:52.871Z,-8.20
2018-03-01T23:07:22.443Z,-8.20
2018-03-01T23:09:48.774Z,-8.10
2018-03-01T23:12:15.188Z,-8.20
2018-03-01T23:14:42.217Z,-8.30
2018-03-01T23:17:08.473Z,-8.40
2018-03-01T23:19:34.722Z,-8.30
2018-03-01T23:22:01.121Z,-8.40
2018-03-01T23:24:27.657Z,-8.50
2018-03-01T23:26:53.942Z,-8.50
2018-03-01T23:29:20.210Z,-8.50
2018-03-01T23:31:46.840Z,-8.50
2018-03-01T23:34:13.135Z,-8.50
2018-03-01T23:36:39.407Z,-8.50
2018-03-01T23:39:05.714Z,-8.60
2018-03-01T23:41:32.065Z,-8.70
2018-03-01T23:43:58.473Z,-8.70
2018-03-01T23:46:24.981Z,-8.70
2018-03-01T23:48:51.309Z,-8.70
2018-03-01T23:51:17.835Z,-8.70
2018-03-01T23:53:45.181Z,-8.70
2018-03-01T23:56:12.250Z,-8.90
2018-03-01T23:58:46.236Z,-8.90
